createdAt,value
2018-04-23T00:01:29.279Z,79.20
2018-04-23T00:03:56.698Z,79.40
2018-04-23T00:06:24.222Z,79.40
2018-04-23T00:08:51.698Z,79.20
2018-04-23T00:11:19.122Z,79.50
2018-04-23T00:13:46.642Z,79.20
2018-04-23T00:16:14.127Z,79.40
2018-04-23T00:18:41.530Z,79.80
2018-04-23T00:21:08.966Z,80.30
2018-04-23T00:23:36.414Z,80.70
2018-04-23T00:26:03.831Z,80.90
2018-04-23T00:28:31.354Z,80.60
2018-04-23T00:30:58.819Z,80.10
2018-04-23T00:33:26.291Z,79.80
2018-04-23T00:35:53.798Z,79.90
2018-04-23T00:38:21.206Z,79.60
2018-04-23T00:40:49.413Z,79.20
2018-04-23T00:43:16.837Z,79.10
2018-04-23T00:45:44.359Z,79.20
2018-04-23T00:48:11.824Z,79.30
2018-04-23T00:50:39.245Z,79.30
2018-04-23T00:53:18.638Z,79.50
2018-04-23T00:55:46.110Z,79.80
2018-04-23T00:58:13.586Z,80.10
2018-04-23T01:00:41.011Z,80.50
2018-04-23T01:03:08.438Z,80.50
2018-04-23T01:05:35.898Z,80.20
2018-04-23T01:08:03.358Z,80.20
2018-04-23T01:10:30.778Z,80.40
2018-04-23T01:12:58.294Z,80.70
2018-04-23T01:15:25.719Z,80.80
2018-04-23T01:17:53.238Z,81.70
2018-04-23T01:20:20.666Z,82.50
2018-04-23T01:22:48.179Z,82.50
2018-04-23T01:25:15.650Z,82.80
2018-04-23T01:27:43.838Z,82.10
2018-04-23T01:30:11.305Z,82.10
2018-04-23T01:32:38.733Z,82.10
2018-04-23T01:35:06.972Z,82.10
2018-04-23T01:37:34.431Z,82.20
2018-04-23T01:40:01.865Z,81.50
2018-04-23T01:42:29.373Z,81.60
2018-04-23T01:44:56.802Z,81.60
2018-04-23T01:47:24.311Z,80.90
2018-04-23T01:49:51.782Z,81.00
2018-04-23T01:52:19.254Z,81.50
2018-04-23T01:54:46.686Z,81.80
2018-04-23T01:57:14.192Z,82.10
2018-04-23T01:59:41.658Z,82.10
2018-04-23T02:02:09.087Z,82.10
2018-04-23T02:04:37.293Z,81.80
2018-04-23T02:07:05.486Z,81.50
2018-04-23T02:09:33.697Z,82.00
2018-04-23T02:12:01.130Z,82.00
2018-04-23T02:14:29.322Z,81.60
2018-04-23T02:16:57.509Z,81.50
2018-04-23T02:19:25.693Z,81.50
2018-04-23T02:21:53.890Z,82.10
2018-04-23T02:24:22.070Z,82.30
2018-04-23T02:26:50.278Z,82.20
2018-04-23T02:29:17.702Z,82.20
2018-04-23T02:31:46.639Z,82.60
2018-04-23T02:34:14.942Z,83.10
2018-04-23T02:36:42.415Z,83.10
2018-04-23T02:39:09.839Z,82.30
2018-04-23T02:41:37.263Z,82.20
2018-04-23T02:44:04.723Z,81.60
2018-04-23T02:46:32.338Z,81.80
2018-04-23T02:48:59.866Z,82.40
2018-04-23T02:51:27.320Z,83.40
2018-04-23T02:53:54.810Z,83.70
2018-04-23T02:56:22.246Z,83.40
2018-04-23T02:58:50.468Z,84.50
2018-04-23T03:01:17.890Z,83.80
2018-04-23T03:03:45.403Z,83.80
2018-04-23T03:06:12.885Z,84.00
2018-04-23T03:08:40.347Z,84.00
2018-04-23T03:11:07.814Z,83.70
2018-04-23T03:13:35.244Z,83.80
2018-04-23T03:16:02.665Z,83.40
2018-04-23T03:18:30.088Z,83.70
2018-04-23T03:20:58.304Z,84.20
2018-04-23T03:23:25.722Z,84.20
2018-04-23T03:25:53.250Z,83.60
2018-04-23T03:28:20.715Z,83.60
2018-04-23T03:30:48.194Z,84.00
2018-04-23T03:33:15.658Z,84.00
2018-04-23T03:35:43.075Z,84.10
2018-04-23T03:38:11.357Z,83.90
2018-04-23T03:40:38.790Z,84.00
2018-04-23T03:43:06.205Z,84.60
2018-04-23T03:45:33.722Z,85.00
2018-04-23T03:48:01.191Z,85.20
2018-04-23T03:50:28.630Z,85.20
2018-04-23T03:52:56.042Z,85.00
2018-04-23T03:55:23.502Z,85.30
2018-04-23T03:57:50.967Z,85.70
2018-04-23T04:00:18.450Z,85.60
2018-04-23T04:02:45.915Z,85.30
2018-04-23T04:05:13.348Z,85.40
2018-04-23T04:07:40.847Z,85.30
2018-04-23T04:10:08.327Z,85.60
2018-04-23T04:12:47.771Z,85.50
2018-04-23T04:15:27.323Z,85.90
2018-04-23T04:21:12.111Z,85.90
2018-04-23T04:23:40.330Z,85.70
2018-04-23T04:26:07.804Z,85.70
2018-04-23T04:28:35.213Z,86.00
2018-04-23T04:31:02.638Z,86.30
2018-04-23T04:33:30.106Z,86.40
2018-04-23T04:35:57.579Z,87.00
2018-04-23T04:38:24.999Z,86.60
2018-04-23T04:40:52.514Z,86.50
2018-04-23T04:43:20.190Z,86.20
2018-04-23T04:45:47.621Z,85.90
2018-04-23T04:48:15.806Z,86.50
2018-04-23T04:50:43.318Z,87.00
2018-04-23T04:53:10.738Z,86.90
2018-04-23T04:55:38.170Z,86.70
2018-04-23T04:58:05.622Z,87.00
2018-04-23T05:00:33.051Z,87.30
2018-04-23T05:03:00.476Z,87.80
2018-04-23T05:05:27.940Z,88.20
2018-04-23T05:07:55.367Z,88.60
2018-04-23T05:10:23.549Z,88.40
2018-04-23T05:12:50.979Z,89.10
2018-04-23T05:15:18.403Z,88.30
2018-04-23T05:17:46.617Z,87.90
2018-04-23T05:20:14.045Z,87.80
2018-04-23T05:22:41.556Z,87.40
2018-04-23T05:25:08.974Z,87.60
2018-04-23T05:27:36.403Z,88.10
2018-04-23T05:30:03.862Z,88.00
2018-04-23T05:32:31.334Z,87.90
2018-04-23T05:34:58.758Z,88.00
2018-04-23T05:37:26.186Z,87.10
2018-04-23T05:39:53.602Z,87.10
2018-04-23T05:42:21.806Z,88.30
2018-04-23T05:44:50.007Z,88.70
2018-04-23T05:47:17.430Z,88.70
2018-04-23T05:49:45.674Z,88.80
2018-04-23T05:52:13.098Z,88.80
2018-04-23T05:54:41.286Z,89.20
2018-04-23T05:57:08.794Z,89.20
2018-04-23T05:59:36.258Z,88.50
2018-04-23T06:02:03.688Z,89.30
2018-04-23T06:04:31.520Z,88.70
2018-04-23T06:06:58.978Z,87.70
2018-04-23T06:09:26.397Z,88.80
2018-04-23T06:11:54.638Z,87.50
2018-04-23T06:14:22.112Z,87.50
2018-04-23T06:16:49.554Z,86.50
2018-04-23T06:19:19.111Z,87.60
2018-04-23T06:21:46.562Z,87.60
2018-04-23T06:24:14.050Z,88.20
2018-04-23T06:26:41.463Z,88.00
2018-04-23T06:29:08.978Z,88.00
2018-04-23T06:31:36.406Z,88.30
2018-04-23T06:34:03.823Z,88.60
2018-04-23T06:36:31.285Z,88.80
2018-04-23T06:38:59.672Z,89.40
2018-04-23T06:41:27.142Z,89.10
2018-04-23T06:43:54.606Z,90.00
2018-04-23T06:46:22.044Z,90.00
2018-04-23T06:48:49.552Z,89.80
2018-04-23T06:51:16.987Z,89.20
2018-04-23T06:53:44.406Z,88.20
2018-04-23T06:56:11.822Z,87.40
2018-04-23T06:58:39.250Z,87.60
2018-04-23T07:01:06.701Z,88.00
2018-04-23T07:03:34.140Z,87.90
2018-04-23T07:06:02.467Z,86.50
2018-04-23T07:08:29.930Z,86.40
2018-04-23T07:10:57.397Z,86.00
2018-04-23T07:13:24.968Z,86.40
2018-04-23T07:15:52.399Z,85.40
2018-04-23T07:18:19.909Z,85.50
2018-04-23T07:20:47.378Z,86.50
2018-04-23T07:23:14.811Z,86.40
2018-04-23T07:25:42.234Z,87.00
2018-04-23T07:28:09.682Z,87.10
2018-04-23T07:30:37.159Z,86.40
2018-04-23T07:33:04.590Z,85.90
2018-04-23T07:35:32.785Z,86.50
2018-04-23T07:38:00.982Z,86.70
2018-04-23T07:40:29.171Z,88.40
2018-04-23T07:42:57.378Z,87.90
2018-04-23T07:45:24.802Z,88.00
2018-04-23T07:47:52.262Z,88.50
2018-04-23T07:50:19.686Z,88.00
2018-04-23T07:52:47.117Z,88.60
2018-04-23T07:55:14.543Z,88.70
2018-04-23T07:57:41.986Z,89.40
2018-04-23T08:00:09.474Z,89.50
2018-04-23T08:02:36.914Z,89.10
2018-04-23T08:05:05.122Z,89.20
2018-04-23T08:07:32.585Z,89.10
2018-04-23T08:10:00.059Z,88.90
2018-04-23T08:12:27.532Z,89.80
2018-04-23T08:14:54.998Z,89.00
2018-04-23T08:17:22.426Z,88.90
2018-04-23T08:19:49.938Z,89.00
2018-04-23T08:22:17.404Z,88.50
2018-04-23T08:24:44.830Z,88.50
2018-04-23T08:27:13.031Z,88.60
2018-04-23T08:29:41.214Z,88.80
2018-04-23T08:32:09.438Z,88.00
2018-04-23T08:34:36.858Z,88.00
2018-04-23T08:37:04.293Z,88.70
2018-04-23T08:39:31.746Z,88.60
2018-04-23T08:41:59.182Z,87.60
2018-04-23T08:44:27.404Z,87.90
2018-04-23T08:46:54.818Z,88.00
2018-04-23T08:49:22.344Z,87.10
2018-04-23T08:51:49.806Z,86.90
2018-04-23T08:54:17.282Z,87.50
2018-04-23T08:56:44.697Z,85.20
2018-04-23T08:59:13.659Z,86.10
2018-04-23T09:01:41.086Z,86.20
2018-04-23T09:04:08.600Z,86.20
2018-04-23T09:06:36.066Z,84.50
2018-04-23T09:09:03.490Z,84.40
2018-04-23T09:11:30.911Z,84.20
2018-04-23T09:13:58.379Z,84.00
2018-04-23T09:16:25.844Z,83.30
2018-04-23T09:18:53.275Z,83.20
2018-04-23T09:21:21.497Z,81.70
2018-04-23T09:23:48.931Z,81.70
2018-04-23T09:26:17.158Z,82.00
2018-04-23T09:28:44.626Z,82.10
2018-04-23T09:31:12.046Z,81.30
2018-04-23T09:33:39.479Z,82.30
2018-04-23T09:36:06.935Z,82.00
2018-04-23T09:38:34.398Z,82.70
2018-04-23T09:41:01.874Z,82.90
2018-04-23T09:43:29.337Z,82.90
2018-04-23T09:45:56.765Z,83.00
2018-04-23T09:48:24.282Z,83.10
2018-04-23T09:50:51.706Z,83.30
2018-04-23T09:53:19.130Z,82.90
2018-04-23T09:55:46.566Z,81.10
2018-04-23T09:58:14.771Z,83.50
2018-04-23T10:00:42.198Z,83.50
2018-04-23T10:03:09.685Z,81.50
2018-04-23T10:05:37.905Z,80.00
2018-04-23T10:08:05.318Z,80.00
2018-04-23T10:10:33.558Z,77.80
2018-04-23T10:13:00.986Z,77.80
2018-04-23T10:15:29.182Z,75.90
2018-04-23T10:17:57.373Z,75.30
2018-04-23T10:20:25.591Z,76.10
2018-04-23T10:22:53.015Z,76.10
2018-04-23T10:25:20.530Z,75.50
2018-04-23T10:27:47.946Z,74.20
2018-04-23T10:30:15.398Z,73.00
2018-04-23T10:32:42.851Z,71.80
2018-04-23T10:35:10.303Z,72.50
2018-04-23T10:37:37.779Z,69.80
2018-04-23T10:40:05.199Z,70.30
2018-04-23T10:42:32.718Z,70.90
2018-04-23T10:45:00.195Z,69.50
2018-04-23T10:47:27.634Z,69.20
2018-04-23T10:49:55.823Z,71.00
2018-04-23T10:52:24.026Z,71.80
2018-04-23T10:54:51.738Z,71.80
2018-04-23T10:57:19.273Z,72.00
2018-04-23T10:59:46.702Z,71.90
2018-04-23T11:02:14.135Z,70.50
2018-04-23T11:04:41.583Z,70.20
2018-04-23T11:07:09.010Z,67.50
2018-04-23T11:09:36.533Z,64.40
2018-04-23T11:12:04.099Z,64.30
2018-04-23T11:14:31.570Z,64.50
2018-04-23T11:16:58.994Z,66.40
2018-04-23T11:19:27.178Z,59.30
2018-04-23T11:21:54.690Z,58.80
2018-04-23T11:24:22.113Z,60.80
2018-04-23T11:26:49.535Z,62.30
2018-04-23T11:29:16.966Z,61.10
2018-04-23T11:31:44.439Z,58.60
2018-04-23T11:34:11.927Z,57.80
2018-04-23T11:36:39.411Z,60.40
2018-04-23T11:39:06.833Z,61.50
2018-04-23T11:41:35.763Z,65.00
2018-04-23T11:44:03.958Z,66.70
2018-04-23T11:46:31.438Z,66.70
2018-04-23T11:48:59.776Z,68.90
2018-04-23T11:51:27.407Z,67.90
2018-04-23T11:53:54.842Z,69.40
2018-04-23T11:56:23.063Z,71.50
2018-04-23T11:58:50.490Z,71.50
2018-04-23T12:01:18.714Z,73.50
2018-04-23T12:03:46.142Z,73.90
2018-04-23T12:06:13.655Z,72.90
2018-04-23T12:08:41.086Z,72.70
2018-04-23T12:11:08.516Z,70.20
2018-04-23T12:13:35.989Z,67.90
2018-04-23T12:16:04.156Z,68.60
2018-04-23T12:18:31.590Z,68.60
2018-04-23T12:20:59.779Z,70.30
2018-04-23T12:23:27.975Z,70.20
2018-04-23T12:25:55.402Z,70.20
2018-04-23T12:28:23.040Z,70.20
2018-04-23T12:30:50.507Z,69.90
2018-04-23T12:33:17.946Z,69.90
2018-04-23T12:35:46.130Z,71.60
2018-04-23T12:38:13.562Z,71.60
2018-04-23T12:40:41.003Z,72.00
2018-04-23T12:43:08.469Z,73.50
2018-04-23T12:45:35.900Z,72.90
2018-04-23T12:48:03.327Z,74.50
2018-04-23T12:50:30.778Z,76.10
2018-04-23T12:52:58.246Z,80.10
2018-04-23T12:55:25.666Z,83.20
2018-04-23T12:57:53.102Z,85.60
2018-04-23T13:00:20.526Z,88.40
2018-04-23T13:02:48.722Z,91.20
2018-04-23T13:05:16.910Z,91.60
2018-04-23T13:07:45.114Z,91.00
2018-04-23T13:10:12.582Z,91.00
2018-04-23T13:12:40.208Z,91.80
2018-04-23T13:15:07.627Z,92.80
2018-04-23T13:17:35.102Z,93.40
2018-04-23T13:20:02.570Z,93.50
2018-04-23T13:22:29.997Z,92.70
2018-04-23T13:24:57.430Z,92.50
2018-04-23T13:27:24.874Z,93.20
2018-04-23T13:29:52.305Z,93.10
2018-04-23T13:32:19.730Z,93.70
2018-04-23T13:34:47.167Z,91.90
2018-04-23T13:37:14.602Z,92.00
2018-04-23T13:39:42.034Z,92.10
2018-04-23T13:42:09.459Z,92.20
2018-04-23T13:44:37.681Z,92.20
2018-04-23T13:47:05.101Z,92.20
2018-04-23T13:49:32.722Z,92.90
2018-04-23T13:52:00.191Z,92.60
2018-04-23T13:54:27.654Z,90.60
2018-04-23T13:56:55.083Z,90.80
2018-04-23T13:59:22.595Z,92.10
2018-04-23T14:01:50.027Z,92.60
2018-04-23T14:04:17.536Z,91.10
2018-04-23T14:06:44.953Z,88.50
2018-04-23T14:09:12.386Z,88.30
2018-04-23T14:11:39.850Z,86.60
2018-04-23T14:14:07.275Z,87.00
2018-04-23T14:16:35.465Z,83.60
2018-04-23T14:19:03.657Z,82.40
2018-04-23T14:21:31.851Z,76.70
2018-04-23T14:24:00.072Z,74.00
2018-04-23T14:26:27.473Z,74.20
2018-04-23T14:28:54.998Z,60.60
2018-04-23T14:31:22.458Z,70.50
2018-04-23T14:33:49.891Z,75.80
2018-04-23T14:36:17.415Z,69.00
2018-04-23T14:38:44.856Z,77.90
2018-04-23T14:41:13.075Z,69.80
2018-04-23T14:43:40.537Z,70.10
2018-04-23T14:46:08.007Z,70.90
2018-04-23T14:48:35.440Z,66.30
2018-04-23T14:51:02.862Z,70.80
2018-04-23T14:53:30.297Z,75.50
2018-04-23T14:55:58.477Z,54.60
2018-04-23T14:58:26.671Z,50.70
2018-04-23T15:00:54.880Z,57.70
2018-04-23T15:03:22.311Z,57.80
2018-04-23T15:05:50.495Z,53.60
2018-04-23T15:08:18.692Z,48.30
2018-04-23T15:10:46.902Z,62.80
2018-04-23T15:13:14.373Z,62.70
2018-04-23T15:15:41.783Z,65.00
2018-04-23T15:18:09.208Z,64.30
2018-04-23T15:20:36.679Z,72.20
2018-04-23T15:23:04.104Z,66.80
2018-04-23T15:25:31.526Z,70.80
2018-04-23T15:27:58.991Z,58.60
2018-04-23T15:30:26.413Z,67.40
2018-04-23T15:32:54.606Z,65.30
2018-04-23T15:35:22.034Z,64.90
2018-04-23T15:37:49.454Z,52.30
2018-04-23T15:40:17.650Z,49.30
2018-04-23T15:42:45.135Z,49.30
2018-04-23T15:45:12.572Z,51.90
2018-04-23T15:47:39.982Z,47.10
2018-04-23T15:50:07.459Z,46.40
2018-04-23T15:52:34.914Z,46.30
2018-04-23T15:55:02.341Z,46.40
2018-04-23T15:57:29.771Z,46.80
2018-04-23T15:59:57.202Z,48.70
2018-04-23T16:02:25.410Z,49.30
2018-04-23T16:04:52.843Z,49.30
2018-04-23T16:07:20.267Z,48.00
2018-04-23T16:09:47.690Z,48.20
2018-04-23T16:12:15.891Z,48.40
2018-04-23T16:14:43.321Z,48.30
2018-04-23T16:17:10.738Z,47.70
2018-04-23T16:19:38.210Z,48.80
2018-04-23T16:22:05.625Z,53.80
2018-04-23T16:24:33.106Z,50.40
2018-04-23T16:27:00.523Z,52.40
2018-04-23T16:29:27.958Z,48.80
2018-04-23T16:31:56.179Z,49.70
2018-04-23T16:34:23.646Z,49.70
2018-04-23T16:36:51.119Z,49.50
2018-04-23T16:39:18.547Z,50.30
2018-04-23T16:41:45.962Z,56.60
2018-04-23T16:44:13.394Z,52.10
2018-04-23T16:46:41.615Z,51.40
2018-04-23T16:49:09.079Z,51.40
2018-04-23T16:51:36.555Z,51.30
2018-04-23T16:54:04.023Z,51.60
2018-04-23T16:56:31.435Z,52.30
2018-04-23T16:58:58.863Z,51.70
2018-04-23T17:01:26.369Z,52.60
2018-04-23T17:03:53.793Z,52.70
2018-04-23T17:06:21.272Z,53.50
2018-04-23T17:08:48.693Z,52.60
2018-04-23T17:11:16.121Z,53.60
2018-04-23T17:13:43.551Z,55.90
2018-04-23T17:16:11.758Z,53.50
2018-04-23T17:18:39.182Z,53.50
2018-04-23T17:21:06.698Z,54.50
2018-04-23T17:23:34.119Z,54.20
2018-04-23T17:26:01.547Z,53.50
2018-04-23T17:28:29.008Z,53.90
2018-04-23T17:30:56.476Z,53.70
2018-04-23T17:33:23.951Z,52.80
2018-04-23T17:35:51.417Z,53.80
2018-04-23T17:38:18.834Z,54.00
2018-04-23T17:40:46.263Z,56.00
2018-04-23T17:43:13.683Z,59.40
2018-04-23T17:45:41.111Z,54.20
2018-04-23T17:48:08.540Z,56.40
2018-04-23T17:50:36.727Z,53.50
2018-04-23T17:53:04.939Z,54.20
2018-04-23T17:55:32.361Z,54.20
2018-04-23T17:57:59.871Z,54.50
2018-04-23T18:00:27.299Z,53.80
2018-04-23T18:02:54.717Z,54.10
2018-04-23T18:05:22.138Z,53.00
2018-04-23T18:07:49.559Z,52.80
2018-04-23T18:10:16.982Z,52.10
2018-04-23T18:12:44.407Z,54.30
2018-04-23T18:15:11.867Z,55.10
2018-04-23T18:17:39.334Z,64.10
2018-04-23T18:20:06.719Z,56.40
2018-04-23T18:22:34.168Z,60.60
2018-04-23T18:25:01.638Z,64.00
2018-04-23T18:27:29.050Z,67.80
2018-04-23T18:29:57.245Z,69.50
2018-04-23T18:32:24.671Z,69.40
2018-04-23T18:34:52.090Z,68.70
2018-04-23T18:37:20.319Z,67.50
2018-04-23T18:39:47.742Z,67.50
2018-04-23T18:42:15.179Z,67.80
2018-04-23T18:44:42.602Z,68.00
2018-04-23T18:47:10.785Z,67.50
2018-04-23T18:49:38.977Z,67.60
2018-04-23T18:52:07.183Z,68.40
2018-04-23T18:54:34.606Z,68.40
2018-04-23T18:57:02.090Z,69.40
2018-04-23T18:59:30.309Z,70.10
2018-04-23T19:01:57.782Z,70.00
2018-04-23T19:04:25.205Z,69.30
2018-04-23T19:06:52.626Z,69.40
2018-04-23T19:09:20.091Z,70.50
2018-04-23T19:11:47.507Z,70.20
2018-04-23T19:14:16.462Z,71.50
2018-04-23T19:16:43.874Z,71.40
2018-04-23T19:19:11.406Z,71.80
2018-04-23T19:21:38.871Z,72.10
2018-04-23T19:24:06.290Z,73.00
2018-04-23T19:26:33.811Z,72.20
2018-04-23T19:29:01.286Z,71.60
2018-04-23T19:31:28.754Z,72.70
2018-04-23T19:33:56.122Z,73.00
2018-04-23T19:36:23.546Z,73.80
2018-04-23T19:38:51.059Z,74.70
2018-04-23T19:41:18.486Z,73.50
2018-04-23T19:43:45.997Z,75.50
2018-04-23T19:46:13.433Z,75.50
2018-04-23T19:48:40.859Z,74.50
2018-04-23T19:51:08.305Z,74.60
2018-04-23T19:53:35.719Z,74.80
2018-04-23T19:56:03.265Z,73.90
2018-04-23T19:58:30.683Z,71.70
2018-04-23T20:00:58.877Z,73.80
2018-04-23T20:03:27.107Z,72.70
2018-04-23T20:05:54.564Z,72.70
2018-04-23T20:08:22.027Z,72.90
2018-04-23T20:10:49.495Z,73.60
2018-04-23T20:13:16.910Z,75.70
2018-04-23T20:15:44.339Z,75.20
2018-04-23T20:18:11.763Z,76.50
2018-04-23T20:20:39.193Z,75.20
2018-04-23T20:23:06.738Z,75.50
2018-04-23T20:25:34.070Z,75.20
2018-04-23T20:28:01.487Z,75.80
2018-04-23T20:30:28.909Z,78.30
2018-04-23T20:32:56.330Z,78.40
2018-04-23T20:35:23.787Z,78.00
2018-04-23T20:37:51.274Z,76.80
2018-04-23T20:40:18.742Z,77.40
2018-04-23T20:42:46.199Z,76.00
2018-04-23T20:45:15.614Z,75.80
2018-04-23T20:47:43.015Z,75.30
2018-04-23T20:50:10.447Z,75.50
2018-04-23T20:52:37.863Z,76.00
2018-04-23T20:55:05.391Z,75.40
2018-04-23T20:57:32.946Z,75.40
2018-04-23T21:00:00.331Z,75.50
2018-04-23T21:02:27.806Z,76.70
2018-04-23T21:04:55.270Z,77.50
2018-04-23T21:07:22.738Z,77.60
2018-04-23T21:09:50.175Z,78.10
2018-04-23T21:12:17.591Z,78.20
2018-04-23T21:14:45.014Z,78.20
2018-04-23T21:17:13.194Z,76.70
2018-04-23T21:19:40.622Z,76.70
2018-04-23T21:22:08.051Z,78.70
2018-04-23T21:24:36.238Z,78.60
2018-04-23T21:27:04.449Z,77.50
2018-04-23T21:29:31.927Z,77.40
2018-04-23T21:31:59.347Z,76.70
2018-04-23T21:34:26.855Z,76.70
2018-04-23T21:36:54.278Z,77.00
2018-04-23T21:39:21.698Z,77.60
2018-04-23T21:41:49.123Z,78.40
2018-04-23T21:44:16.639Z,78.00
2018-04-23T21:46:44.062Z,77.70
2018-04-23T21:49:12.249Z,78.00
2018-04-23T21:51:39.675Z,78.20
2018-04-23T21:54:07.089Z,78.50
2018-04-23T21:56:34.510Z,78.90
2018-04-23T21:59:01.939Z,79.90
2018-04-23T22:01:30.151Z,80.80
2018-04-23T22:03:57.566Z,80.80
2018-04-23T22:06:25.758Z,81.40
2018-04-23T22:08:53.196Z,81.40
2018-04-23T22:11:20.607Z,80.90
2018-04-23T22:13:48.835Z,80.90
2018-04-23T22:16:16.302Z,80.40
2018-04-23T22:18:43.724Z,80.30
2018-04-23T22:21:11.243Z,80.70
2018-04-23T22:23:38.658Z,79.30
2018-04-23T22:26:06.189Z,80.00
2018-04-23T22:28:33.614Z,80.70
2018-04-23T22:31:01.843Z,81.20
2018-04-23T22:33:29.443Z,80.40
2018-04-23T22:35:56.877Z,81.10
2018-04-23T22:38:24.357Z,79.90
2018-04-23T22:40:51.783Z,79.70
2018-04-23T22:43:19.974Z,79.80
2018-04-23T22:45:47.483Z,79.90
2018-04-23T22:48:14.907Z,80.20
2018-04-23T22:50:42.329Z,80.80
2018-04-23T22:53:09.791Z,81.70
2018-04-23T22:55:37.214Z,81.40
2018-04-23T22:58:04.629Z,82.10
2018-04-23T23:00:32.091Z,83.30
2018-04-23T23:02:59.505Z,83.20
2018-04-23T23:05:26.930Z,83.80
2018-04-23T23:07:54.359Z,84.00
2018-04-23T23:10:21.866Z,84.10
2018-04-23T23:12:49.381Z,84.50
2018-04-23T23:15:16.785Z,85.00
2018-04-23T23:17:44.994Z,85.60
2018-04-23T23:20:12.467Z,85.60
2018-04-23T23:22:39.891Z,85.90
2018-04-23T23:25:08.081Z,86.70
2018-04-23T23:27:35.500Z,86.70
2018-04-23T23:30:02.968Z,86.70
2018-04-23T23:32:30.389Z,87.00
2018-04-23T23:34:58.614Z,87.10
2018-04-23T23:37:26.042Z,87.40
2018-04-23T23:39:53.459Z,87.80
2018-04-23T23:42:20.926Z,88.10
2018-04-23T23:44:48.351Z,88.00
2018-04-23T23:47:15.882Z,87.60
2018-04-23T23:49:43.307Z,87.70
2018-04-23T23:52:11.494Z,88.00
2018-04-23T23:54:39.686Z,88.00
2018-04-23T23:57:07.879Z,88.20
2018-04-23T23:59:35.310Z,88.20
